Time;durP1;ratioP1;P1;durP2;ratioP2;P2;SDS_P1;SDS_P2;PMS_P1;PMS_P2;Temp;Humidity;BMP_temperature;BMP_pressure;BME280_temperature;BME280_humidity;BME280_pressure;Samples;Min_cycle;Max_cycle;Signal;HPM_P1;HPM_P2
2021/06/08 00:00:00;;;;;;;3.67;3.00;;;20.50;91.00;20.30;99901.00;;;;340204;28;86807;-87
2021/06/08 00:00:12;;;;;;;3.33;2.95;;;20.50;91.00;20.20;99905.00;;;;338855;28;90482;-86
2021/06/08 00:00:24;;;;;;;3.17;2.88;;;20.40;91.00;20.20;99899.00;;;;340095;28;86936;-86
2021/06/08 00:00:36;;;;;;;3.85;3.25;;;20.40;91.00;20.30;99901.00;;;;341601;28;89484;-87
2021/06/08 00:00:48;;;;;;;3.67;3.20;;;20.40;91.00;20.30;99902.00;;;;336344;28;86784;-86
2021/06/08 00:01:00;;;;;;;3.45;3.15;;;20.40;91.00;20.30;99901.00;;;;342736;28;90894;-86
2021/06/08 00:01:12;;;;;;;3.92;3.53;;;20.40;90.90;20.30;99897.00;;;;338064;28;85914;-86
2021/06/08 00:01:24;;;;;;;4.00;3.60;;;20.40;90.90;20.30;99894.00;;;;340426;28;88670;-87
2021/06/08 00:01:36;;;;;;;3.70;3.33;;;20.40;90.90;20.20;99895.00;;;;339906;28;87924;-86
2021/06/08 00:01:48;;;;;;;3.40;3.10;;;20.40;90.90;20.20;99896.00;;;;340022;28;91420;-87
2021/06/08 00:02:01;;;;;;;4.43;3.40;;;20.40;91.00;20.40;99904.00;;;;340064;28;87001;-86
2021/06/08 00:02:12;;;;;;;5.43;3.53;;;20.40;91.00;20.30;99895.00;;;;339153;28;89401;-86
2021/06/08 00:02:25;;;;;;;5.07;3.53;;;20.40;91.00;20.40;99894.00;;;;337468;28;87277;-86
2021/06/08 00:02:36;;;;;;;4.55;3.25;;;20.40;91.00;20.40;99894.00;;;;338904;28;89846;-86
2021/06/08 00:02:49;;;;;;;4.13;2.83;;;20.40;91.00;20.40;99901.00;;;;340127;28;86935;-86
2021/06/08 00:03:02;;;;;;;4.70;2.90;;;20.40;91.10;20.20;99895.00;;;;340075;28;90447;-87
2021/06/08 00:03:14;;;;;;;4.10;2.75;;;20.40;91.00;20.30;99902.00;;;;338721;28;88380;-86
2021/06/08 00:03:26;;;;;;;3.45;2.72;;;20.40;91.00;20.40;99894.00;;;;340399;28;88149;-86
2021/06/08 00:03:38;;;;;;;3.70;2.83;;;20.40;91.00;20.40;99894.00;;;;337581;28;86104;-87
2021/06/08 00:03:50;;;;;;;4.07;3.25;;;20.40;91.00;20.40;99898.00;;;;340186;28;89256;-87
2021/06/08 00:04:01;;;;;;;4.40;3.30;;;20.40;91.10;20.40;99900.00;;;;338632;28;86895;-86
2021/06/08 00:04:13;;;;;;;4.05;3.00;;;20.40;91.10;20.40;99900.00;;;;340172;28;89342;-86
2021/06/08 00:04:25;;;;;;;3.95;3.03;;;20.40;91.00;20.40;99903.00;;;;338191;28;86001;-87
2021/06/08 00:04:37;;;;;;;4.03;3.30;;;20.40;91.00;20.40;99898.00;;;;340070;28;90310;-87
2021/06/08 00:04:49;;;;;;;4.88;3.70;;;20.40;91.00;20.40;99902.00;;;;338912;28;86877;-86
2021/06/08 00:05:01;;;;;;;5.72;3.63;;;20.50;91.00;20.40;99896.00;;;;340324;28;89491;-86
2021/06/08 00:05:13;;;;;;;5.63;3.33;;;20.50;91.00;20.40;99897.00;;;;338383;28;86283;-87
2021/06/08 00:05:25;;;;;;;5.90;3.17;;;20.40;91.00;20.40;99898.00;;;;338972;28;90881;-87
2021/06/08 00:05:36;;;;;;;5.75;3.20;;;20.40;91.00;20.40;99894.00;;;;338728;28;87066;-86
2021/06/08 00:05:48;;;;;;;5.38;3.13;;;20.50;91.00;20.40;99889.00;;;;340135;28;93153;-86
2021/06/08 00:06:00;;;;;;;3.63;2.80;;;20.50;91.00;20.40;99897.00;;;;338862;28;86932;-87
2021/06/08 00:06:12;;;;;;;3.20;2.90;;;20.50;91.00;20.50;99893.00;;;;337458;28;90717;-87
2021/06/08 00:06:24;;;;;;;3.65;3.35;;;20.50;91.00;20.40;99897.00;;;;338675;28;86899;-86
2021/06/08 00:06:36;;;;;;;4.07;3.67;;;20.50;91.00;20.30;99891.00;;;;338823;28;87592;-87
2021/06/08 00:06:49;;;;;;;4.05;3.60;;;20.50;91.00;20.40;99896.00;;;;338884;28;86849;-87
2021/06/08 00:07:01;;;;;;;4.72;3.53;;;20.50;91.00;20.40;99891.00;;;;340025;28;90608;-86
2021/06/08 00:07:13;;;;;;;4.68;3.67;;;20.50;91.00;20.40;99893.00;;;;339955;28;88933;-86
2021/06/08 00:07:25;;;;;;;4.13;3.53;;;20.50;91.00;20.40;99894.00;;;;339306;28;89064;-86
2021/06/08 00:07:37;;;;;;;4.55;3.40;;;20.50;91.00;20.50;99896.00;;;;339884;28;86818;-86
2021/06/08 00:07:49;;;;;;;5.38;3.28;;;20.50;91.00;20.50;99896.00;;;;341587;28;89236;-86
2021/06/08 00:08:03;;;;;;;5.25;3.30;;;20.50;91.00;20.40;99893.00;;;;338819;28;86159;-86
2021/06/08 00:08:15;;;;;;;6.03;3.40;;;20.50;91.00;20.40;99898.00;;;;339610;28;88441;-87
2021/06/08 00:08:27;;;;;;;6.53;3.30;;;20.50;91.00;20.50;99893.00;;;;341243;28;87267;-87
2021/06/08 00:08:39;;;;;;;5.40;3.30;;;20.50;91.00;20.40;99899.00;;;;339990;28;91481;-86
2021/06/08 00:08:51;;;;;;;3.97;3.20;;;20.50;91.00;20.40;99898.00;;;;341251;28;87681;-86
2021/06/08 00:09:03;;;;;;;3.53;3.10;;;20.50;91.00;20.40;99896.00;;;;341668;28;89106;-87
2021/06/08 00:09:15;;;;;;;3.83;3.05;;;20.50;91.00;20.40;99898.00;;;;340123;28;86312;-87
2021/06/08 00:09:27;;;;;;;4.28;3.05;;;20.50;91.00;20.30;99899.00;;;;339052;28;88622;-86
2021/06/08 00:09:39;;;;;;;4.47;3.17;;;20.50;91.00;20.30;99894.00;;;;340959;28;87131;-87
2021/06/08 00:09:51;;;;;;;3.90;3.22;;;20.50;91.00;20.40;99897.00;;;;341614;28;89379;-86
2021/06/08 00:10:04;;;;;;;3.80;3.38;;;20.50;91.00;20.40;99895.00;;;;341572;28;86746;-86
2021/06/08 00:10:17;;;;;;;3.95;3.35;;;20.50;91.00;20.50;99899.00;;;;340087;28;89863;-86
2021/06/08 00:10:29;;;;;;;4.03;3.28;;;20.50;91.00;20.40;99894.00;;;;339060;28;87009;-86
2021/06/08 00:10:41;;;;;;;3.95;3.20;;;20.50;91.10;20.30;99897.00;;;;338821;28;89632;-87
2021/06/08 00:10:53;;;;;;;4.38;3.20;;;20.50;91.00;20.40;99888.00;;;;340237;28;86735;-86
2021/06/08 00:11:05;;;;;;;4.45;3.35;;;20.50;91.00;20.40;99892.00;;;;338993;28;88142;-87
2021/06/08 00:11:20;;;;;;;4.85;3.58;;;20.50;91.00;20.50;99891.00;;;;340023;28;85735;-86
2021/06/08 00:11:32;;;;;;;3.78;3.45;;;20.50;91.10;20.50;99888.00;;;;340394;28;88603;-87
2021/06/08 00:11:44;;;;;;;3.50;3.20;;;20.50;91.00;20.40;99889.00;;;;340081;28;87068;-87
2021/06/08 00:11:56;;;;;;;3.42;3.00;;;20.50;91.00;20.50;99893.00;;;;340281;28;89755;-86
2021/06/08 00:12:08;;;;;;;4.28;3.40;;;20.50;91.00;20.40;99889.00;;;;338880;28;86998;-87
2021/06/08 00:12:20;;;;;;;4.35;3.38;;;20.50;91.10;20.40;99887.00;;;;340014;28;90575;-87
2021/06/08 00:12:32;;;;;;;3.92;3.20;;;20.50;91.00;20.50;99888.00;;;;341516;28;86773;-86
2021/06/08 00:12:45;;;;;;;3.45;2.80;;;20.50;91.10;20.30;99889.00;;;;340160;28;92431;-86
2021/06/08 00:12:56;;;;;;;3.60;3.20;;;20.50;91.10;20.40;99890.00;;;;339792;28;88432;-87
2021/06/08 00:13:08;;;;;;;4.18;3.20;;;20.50;91.10;20.50;99890.00;;;;341422;28;88846;-87
2021/06/08 00:13:20;;;;;;;4.47;3.22;;;20.50;91.10;20.40;99898.00;;;;338988;28;89146;-87
2021/06/08 00:13:32;;;;;;;4.32;3.00;;;20.50;91.10;20.40;99893.00;;;;339969;28;89625;-86
2021/06/08 00:13:44;;;;;;;3.45;2.90;;;20.50;91.10;20.30;99896.00;;;;340338;28;87231;-87
2021/06/08 00:13:57;;;;;;;3.58;3.10;;;20.50;91.10;20.30;99895.00;;;;338865;28;90913;-86
2021/06/08 00:14:09;;;;;;;3.70;3.03;;;20.40;91.00;20.30;99890.00;;;;341522;28;86759;-86
2021/06/08 00:14:21;;;;;;;3.53;2.92;;;20.40;91.00;20.20;99888.00;;;;338869;28;89744;-86
2021/06/08 00:14:33;;;;;;;3.40;3.10;;;20.40;91.00;20.30;99894.00;;;;337512;28;86815;-86
2021/06/08 00:14:45;;;;;;;4.13;3.22;;;20.40;91.10;20.40;99889.00;;;;338845;28;89003;-86
2021/06/08 00:14:56;;;;;;;5.55;3.53;;;20.40;91.10;20.40;99887.00;;;;338610;28;87716;-86
2021/06/08 00:15:09;;;;;;;6.10;3.55;;;20.50;91.10;20.40;99890.00;;;;339886;28;88360;-86
2021/06/08 00:15:21;;;;;;;4.68;3.35;;;20.50;91.10;20.40;99894.00;;;;337017;28;86244;-86
2021/06/08 00:15:33;;;;;;;3.47;3.17;;;20.50;91.00;20.40;99896.00;;;;340385;28;87086;-87
2021/06/08 00:15:45;;;;;;;3.47;3.17;;;20.50;91.00;20.40;99890.00;;;;338722;28;86903;-87
2021/06/08 00:15:57;;;;;;;3.72;3.42;;;20.50;91.00;20.40;99890.00;;;;340073;28;88485;-87
2021/06/08 00:16:09;;;;;;;3.70;3.40;;;20.50;91.00;20.40;99895.00;;;;340209;28;86936;-86
2021/06/08 00:16:21;;;;;;;3.45;3.15;;;20.50;91.00;20.40;99895.00;;;;339185;28;91919;-87
2021/06/08 00:16:33;;;;;;;3.90;2.97;;;20.50;91.00;20.40;99891.00;;;;340047;28;88974;-86
2021/06/08 00:16:45;;;;;;;4.65;3.58;;;20.50;91.00;20.40;99891.00;;;;338425;28;88089;-87
2021/06/08 00:16:56;;;;;;;4.70;3.67;;;20.50;91.00;20.40;99888.00;;;;340157;28;86031;-87
2021/06/08 00:17:09;;;;;;;3.92;3.33;;;20.50;91.00;20.40;99887.00;;;;337463;28;91685;-87
2021/06/08 00:17:21;;;;;;;3.28;2.90;;;20.50;91.00;20.30;99889.00;;;;338561;28;87742;-86
2021/06/08 00:17:32;;;;;;;3.78;3.35;;;20.50;91.00;20.30;99891.00;;;;336396;28;88823;-87
2021/06/08 00:17:44;;;;;;;4.25;3.28;;;20.50;91.00;20.30;99888.00;;;;340079;28;86993;-87
2021/06/08 00:17:56;;;;;;;4.18;3.30;;;20.50;91.00;20.30;99895.00;;;;338904;28;89420;-86
2021/06/08 00:18:08;;;;;;;3.67;3.38;;;20.50;91.00;20.20;99888.00;;;;338853;28;86941;-86
2021/06/08 00:18:20;;;;;;;3.72;3.40;;;20.40;91.00;20.20;99886.00;;;;336362;28;89441;-87
2021/06/08 00:18:32;;;;;;;3.92;3.25;;;20.40;91.00;20.10;99892.00;;;;337490;28;86029;-86
2021/06/08 00:18:44;;;;;;;4.05;3.42;;;20.40;91.00;20.10;99890.00;;;;337613;28;89490;-86
2021/06/08 00:18:56;;;;;;;4.05;3.50;;;20.40;91.00;20.20;99893.00;;;;338321;28;87792;-87
2021/06/08 00:19:08;;;;;;;3.53;3.22;;;20.40;91.10;20.30;99895.00;;;;338734;28;89038;-87
2021/06/08 00:19:20;;;;;;;3.00;2.70;;;20.40;91.10;20.20;99893.00;;;;340076;28;86227;-87
2021/06/08 00:19:33;;;;;;;3.10;2.80;;;20.40;91.10;20.00;99893.00;;;;340180;28;87206;-87
2021/06/08 00:19:45;;;;;;;4.50;3.17;;;20.40;91.20;20.00;99897.00;;;;341307;28;87027;-87
2021/06/08 00:19:58;;;;;;;5.28;3.50;;;20.30;91.10;20.20;99894.00;;;;341717;28;88621;-86
2021/06/08 00:20:10;;;;;;;4.57;3.50;;;20.30;91.10;20.20;99894.00;;;;338773;28;86872;-86
2021/06/08 00:20:22;;;;;;;4.30;3.67;;;20.30;91.20;20.20;99891.00;;;;339012;28;89344;-87
2021/06/08 00:20:34;;;;;;;4.90;3.60;;;20.30;91.20;20.10;99891.00;;;;338498;28;86921;-87
2021/06/08 00:20:46;;;;;;;4.60;3.40;;;20.30;91.20;20.20;99898.00;;;;338850;28;90658;-87
2021/06/08 00:20:58;;;;;;;4.72;3.45;;;20.30;91.30;20.30;99890.00;;;;340167;28;86166;-87
2021/06/08 00:21:09;;;;;;;4.72;3.67;;;20.30;91.20;20.20;99897.00;;;;338810;28;90709;-87
2021/06/08 00:21:21;;;;;;;3.95;3.55;;;20.30;91.30;20.20;99891.00;;;;337113;28;87580;-87
2021/06/08 00:21:33;;;;;;;3.67;3.38;;;20.30;91.30;20.30;99898.00;;;;337534;28;88744;-86
2021/06/08 00:21:45;;;;;;;3.55;3.25;;;20.30;91.30;20.20;99891.00;;;;340099;28;86164;-87
2021/06/08 00:21:57;;;;;;;4.65;3.53;;;20.30;91.30;20.30;99893.00;;;;338956;28;89262;-87
2021/06/08 00:22:09;;;;;;;5.07;3.90;;;20.30;91.30;20.20;99898.00;;;;338701;28;86958;-87
2021/06/08 00:22:21;;;;;;;4.75;3.95;;;20.30;91.30;20.10;99893.00;;;;337654;28;90660;-87
2021/06/08 00:22:33;;;;;;;4.10;3.72;;;20.30;91.30;20.20;99894.00;;;;338610;28;87954;-87
2021/06/08 00:22:45;;;;;;;3.53;3.22;;;20.30;91.30;20.10;99898.00;;;;342374;28;86571;-87
2021/06/08 00:22:57;;;;;;;3.83;3.20;;;20.30;91.30;20.10;99894.00;;;;341264;28;88078;-87
2021/06/08 00:23:09;;;;;;;5.38;3.40;;;20.30;91.30;20.20;99894.00;;;;339984;28;90286;-87
2021/06/08 00:23:21;;;;;;;5.05;3.40;;;20.30;91.30;20.20;99897.00;;;;337395;28;86300;-87
2021/06/08 00:23:32;;;;;;;4.43;3.13;;;20.30;91.40;20.10;99902.00;;;;337556;28;88701;-86
2021/06/08 00:23:44;;;;;;;3.22;2.92;;;20.30;91.40;20.00;99898.00;;;;338672;28;86865;-86
2021/06/08 00:23:56;;;;;;;3.45;3.10;;;20.30;91.30;20.00;99899.00;;;;336306;28;87814;-86
2021/06/08 00:24:08;;;;;;;3.97;3.45;;;20.30;91.30;20.00;99897.00;;;;338576;28;87524;-86
2021/06/08 00:24:20;;;;;;;4.25;3.30;;;20.30;91.30;20.20;99903.00;;;;338968;28;89484;-86
2021/06/08 00:24:32;;;;;;;4.32;3.30;;;20.30;91.40;20.30;99890.00;;;;340116;28;85966;-86
2021/06/08 00:24:44;;;;;;;4.00;3.42;;;20.30;91.40;20.30;99894.00;;;;340286;28;88966;-87
2021/06/08 00:24:56;;;;;;;4.40;3.40;;;20.30;91.40;20.30;99901.00;;;;337433;28;87030;-87
2021/06/08 00:25:08;;;;;;;3.80;3.17;;;20.30;91.30;20.30;99896.00;;;;341254;28;90533;-86
2021/06/08 00:25:20;;;;;;;3.38;3.08;;;20.30;91.30;20.40;99901.00;;;;339039;28;89134;-86
2021/06/08 00:25:32;;;;;;;4.25;3.50;;;20.30;91.30;20.30;99891.00;;;;340132;28;90551;-86
2021/06/08 00:25:44;;;;;;;4.25;3.47;;;20.30;91.30;20.40;99889.00;;;;340703;28;87130;-86
2021/06/08 00:25:56;;;;;;;4.20;3.25;;;20.30;91.30;20.40;99895.00;;;;337607;28;89181;-87
2021/06/08 00:26:07;;;;;;;3.47;3.10;;;20.30;91.30;20.40;99899.00;;;;338870;28;86882;-86
2021/06/08 00:26:19;;;;;;;5.35;3.38;;;20.30;91.30;20.30;99895.00;;;;337345;28;89768;-86
2021/06/08 00:26:33;;;;;;;5.68;3.45;;;20.30;91.30;20.30;99899.00;;;;340061;28;86995;-86
2021/06/08 00:26:44;;;;;;;4.38;3.47;;;20.30;91.20;20.40;99899.00;;;;341539;28;90797;-86
2021/06/08 00:26:56;;;;;;;3.70;3.40;;;20.30;91.30;20.40;99899.00;;;;338791;28;87037;-87
2021/06/08 00:27:08;;;;;;;4.00;3.40;;;20.30;91.30;20.40;99891.00;;;;342786;28;92087;-87
2021/06/08 00:27:20;;;;;;;3.83;3.15;;;20.30;91.30;20.50;99901.00;;;;341594;28;86227;-86
2021/06/08 00:27:32;;;;;;;4.68;3.13;;;20.30;91.60;20.40;99892.00;;;;337642;28;90878;-87
2021/06/08 00:27:44;;;;;;;4.95;3.40;;;20.40;91.30;20.30;99894.00;;;;340158;28;86928;-87
2021/06/08 00:27:57;;;;;;;5.13;3.70;;;20.30;91.20;20.20;99897.00;;;;341341;28;91016;-86
2021/06/08 00:28:09;;;;;;;4.07;3.55;;;20.30;91.20;20.30;99894.00;;;;338623;28;86882;-87
2021/06/08 00:28:21;;;;;;;3.60;3.30;;;20.30;91.30;20.40;99897.00;;;;339567;28;91882;-87
2021/06/08 00:28:32;;;;;;;3.70;3.30;;;20.30;91.30;20.40;99896.00;;;;337494;28;86161;-87
2021/06/08 00:28:44;;;;;;;3.95;3.15;;;20.30;91.30;20.40;99895.00;;;;339748;28;88839;-87
2021/06/08 00:28:56;;;;;;;3.65;3.13;;;20.40;91.30;20.30;99891.00;;;;338778;28;86990;-87
2021/06/08 00:29:08;;;;;;;3.78;3.25;;;20.40;91.20;20.20;99893.00;;;;340258;28;89266;-86
2021/06/08 00:29:20;;;;;;;4.07;3.30;;;20.40;91.20;20.30;99889.00;;;;339966;28;89341;-86
2021/06/08 00:29:31;;;;;;;4.35;3.40;;;20.40;91.20;20.30;99904.00;;;;337611;28;89892;-86
2021/06/08 00:29:43;;;;;;;3.60;3.15;;;20.40;91.20;20.30;99899.00;;;;340049;28;88394;-87
2021/06/08 00:29:55;;;;;;;4.20;3.35;;;20.40;91.20;20.30;99893.00;;;;338801;28;89215;-86
2021/06/08 00:30:08;;;;;;;4.20;3.17;;;20.40;91.20;20.40;99895.00;;;;339999;28;86862;-87
2021/06/08 00:30:21;;;;;;;3.85;3.35;;;20.40;91.20;20.40;99894.00;;;;339022;28;87522;-86
2021/06/08 00:30:33;;;;;;;3.90;3.50;;;20.40;91.20;20.50;99894.00;;;;337519;28;86617;-86
2021/06/08 00:30:45;;;;;;;4.22;3.40;;;20.40;91.20;20.40;99898.00;;;;336375;28;89177;-87
2021/06/08 00:30:57;;;;;;;4.00;3.25;;;20.40;91.20;20.30;99896.00;;;;339771;28;87895;-86
2021/06/08 00:31:09;;;;;;;3.50;3.20;;;20.40;91.20;20.30;99894.00;;;;337481;28;87912;-86
2021/06/08 00:31:21;;;;;;;3.63;3.22;;;20.40;91.20;20.20;99897.00;;;;341940;28;86220;-87
2021/06/08 00:31:33;;;;;;;4.68;3.22;;;20.40;91.20;20.30;99895.00;;;;339035;28;87509;-86
2021/06/08 00:31:46;;;;;;;5.13;3.22;;;20.40;91.20;20.20;99893.00;;;;339351;28;87362;-88
2021/06/08 00:31:58;;;;;;;4.57;3.42;;;20.40;91.20;20.30;99892.00;;;;340245;28;89340;-86
2021/06/08 00:32:10;;;;;;;4.50;3.60;;;20.40;91.20;20.20;99893.00;;;;339542;28;87106;-86
2021/06/08 00:32:22;;;;;;;4.25;3.63;;;20.40;91.20;20.40;99896.00;;;;340290;28;89406;-87
2021/06/08 00:32:34;;;;;;;4.68;3.55;;;20.40;91.30;20.40;99888.00;;;;338457;28;87006;-86
2021/06/08 00:32:46;;;;;;;4.82;3.55;;;20.40;91.20;20.40;99892.00;;;;340330;28;89258;-86
2021/06/08 00:32:58;;;;;;;5.82;3.78;;;20.40;91.20;20.50;99892.00;;;;339910;28;87443;-86
2021/06/08 00:33:11;;;;;;;5.68;3.58;;;20.40;91.20;20.50;99886.00;;;;340270;28;88948;-86
2021/06/08 00:33:22;;;;;;;4.82;3.30;;;20.40;91.20;20.40;99883.00;;;;338813;28;86107;-87
2021/06/08 00:33:35;;;;;;;4.30;3.28;;;20.40;91.10;20.40;99897.00;;;;340357;28;88410;-86
2021/06/08 00:33:47;;;;;;;3.97;3.17;;;20.50;91.40;20.30;99892.00;;;;338542;28;86956;-86
2021/06/08 00:33:59;;;;;;;3.75;3.05;;;20.50;91.20;20.30;99890.00;;;;338880;28;89548;-86
2021/06/08 00:34:11;;;;;;;4.57;3.05;;;20.50;91.10;20.30;99886.00;;;;338791;28;86055;-87
2021/06/08 00:34:23;;;;;;;4.75;2.88;;;20.50;91.10;20.30;99882.00;;;;340854;28;90964;-86
2021/06/08 00:34:35;;;;;;;4.57;3.15;;;20.50;91.10;20.30;99888.00;;;;338485;28;86486;-87
2021/06/08 00:34:47;;;;;;;3.80;3.35;;;20.50;91.10;20.40;99892.00;;;;340192;28;88815;-87
2021/06/08 00:34:59;;;;;;;3.65;3.30;;;20.50;91.10;20.40;99891.00;;;;337380;28;87620;-87
2021/06/08 00:35:11;;;;;;;4.32;3.17;;;20.40;91.10;20.30;99888.00;;;;340149;28;89184;-86
2021/06/08 00:35:25;;;;;;;5.95;3.60;;;20.50;91.10;20.30;99891.00;;;;338663;28;86505;-87
2021/06/08 00:35:37;;;;;;;5.57;3.58;;;20.40;91.10;20.40;99882.00;;;;336314;28;89049;-87
2021/06/08 00:35:49;;;;;;;3.40;3.10;;;20.40;91.10;20.40;99885.00;;;;336111;28;87002;-87
2021/06/08 00:36:01;;;;;;;3.13;2.85;;;20.40;91.10;20.40;99892.00;;;;340240;28;89269;-87
2021/06/08 00:36:14;;;;;;;4.00;3.15;;;20.50;91.10;20.10;99890.00;;;;336214;28;86029;-86
2021/06/08 00:36:26;;;;;;;4.88;3.22;;;20.40;91.10;20.20;99883.00;;;;338809;28;90747;-86
2021/06/08 00:36:37;;;;;;;4.68;3.58;;;20.40;91.10;20.30;99886.00;;;;340156;28;86995;-86
2021/06/08 00:36:49;;;;;;;4.38;3.38;;;20.40;91.10;20.20;99887.00;;;;340286;28;89606;-87
2021/06/08 00:37:02;;;;;;;4.65;3.45;;;20.40;91.00;20.10;99881.00;;;;337412;28;86049;-86
2021/06/08 00:37:13;;;;;;;4.68;3.35;;;20.40;91.00;20.20;99888.00;;;;339980;28;89560;-86
2021/06/08 00:37:25;;;;;;;4.38;3.50;;;20.40;91.10;20.30;99886.00;;;;337423;28;87236;-86
2021/06/08 00:37:39;;;;;;;3.83;3.28;;;20.40;91.10;20.20;99882.00;;;;342699;28;91322;-86
2021/06/08 00:37:51;;;;;;;3.60;3.30;;;20.40;91.10;20.20;99880.00;;;;340134;28;86189;-86
2021/06/08 00:38:02;;;;;;;3.60;3.30;;;20.40;91.40;20.30;99887.00;;;;341367;28;90698;-86
2021/06/08 00:38:14;;;;;;;3.53;3.22;;;20.40;91.10;20.30;99884.00;;;;341565;28;86765;-87
2021/06/08 00:38:26;;;;;;;4.00;3.42;;;20.40;91.10;20.40;99889.00;;;;341323;28;90520;-86
2021/06/08 00:38:38;;;;;;;4.70;3.47;;;20.40;91.10;20.30;99891.00;;;;339888;28;87179;-86
2021/06/08 00:38:50;;;;;;;5.47;3.25;;;20.40;91.10;20.20;99885.00;;;;340411;28;89386;-85
2021/06/08 00:39:02;;;;;;;4.78;3.17;;;20.40;91.10;20.10;99881.00;;;;341409;28;86854;-87
2021/06/08 00:39:14;;;;;;;3.45;3.15;;;20.40;91.10;20.20;99880.00;;;;337312;28;91012;-86
2021/06/08 00:39:26;;;;;;;3.33;3.03;;;20.40;91.10;20.10;99889.00;;;;338542;28;86829;-88
2021/06/08 00:39:38;;;;;;;4.38;3.38;;;20.40;91.20;20.10;99880.00;;;;339015;28;88842;-87
2021/06/08 00:39:52;;;;;;;5.38;3.55;;;20.30;91.10;20.10;99884.00;;;;339925;28;87113;-87
2021/06/08 00:40:05;;;;;;;5.65;3.45;;;20.30;91.20;20.10;99883.00;;;;338479;28;88277;-87
2021/06/08 00:40:17;;;;;;;4.57;3.35;;;20.30;91.20;20.10;99887.00;;;;338629;28;87031;-86
2021/06/08 00:40:29;;;;;;;4.03;3.50;;;20.30;91.20;20.00;99888.00;;;;338957;28;87737;-86
2021/06/08 00:40:42;;;;;;;4.07;3.47;;;20.30;91.30;20.00;99888.00;;;;340458;28;87033;-87
2021/06/08 00:40:54;;;;;;;4.70;3.47;;;20.30;91.20;20.00;99882.00;;;;338734;28;91206;-86
2021/06/08 00:41:06;;;;;;;4.78;3.40;;;20.30;91.30;20.10;99881.00;;;;338781;28;86975;-87
2021/06/08 00:41:20;;;;;;;5.03;3.58;;;20.30;91.30;20.10;99888.00;;;;340213;28;89730;-86
2021/06/08 00:41:40;;;;;;;4.47;3.30;;;20.30;91.30;20.10;99880.00;;;;337254;28;87807;-86
2021/06/08 00:41:52;;;;;;;5.18;3.65;;;20.30;91.30;20.20;99886.00;;;;338455;28;88064;-86
2021/06/08 00:42:04;;;;;;;6.13;3.92;;;20.30;91.30;20.10;99883.00;;;;338755;28;86990;-87
2021/06/08 00:42:29;;;;;;;5.70;3.90;;;20.30;91.40;20.10;99892.00;;;;336347;28;89380;-86
2021/06/08 00:42:43;;;;;;;4.15;3.08;;;20.20;91.30;20.10;99889.00;;;;338534;28;86965;-87
2021/06/08 00:42:55;;;;;;;4.30;3.53;;;20.30;91.30;20.00;99879.00;;;;338943;28;89367;-87
2021/06/08 00:43:07;;;;;;;4.38;3.50;;;20.30;91.30;20.00;99881.00;;;;339761;28;87372;-87
2021/06/08 00:43:24;;;;;;;3.92;3.28;;;20.20;91.30;20.00;99884.00;;;;339247;28;89510;-87
2021/06/08 00:43:36;;;;;;;3.97;3.33;;;20.20;91.40;20.00;99882.00;;;;341450;28;86835;-86
2021/06/08 00:43:48;;;;;;;4.47;3.40;;;20.20;91.50;20.00;99881.00;;;;341506;28;88970;-86
2021/06/08 00:44:02;;;;;;;4.50;3.28;;;20.20;91.40;20.00;99883.00;;;;338832;28;85875;-86
2021/06/08 00:44:14;;;;;;;4.15;3.00;;;20.20;91.40;20.00;99880.00;;;;342518;28;87587;-87
2021/06/08 00:44:26;;;;;;;3.97;3.20;;;20.20;91.40;19.90;99887.00;;;;339791;28;87365;-86
2021/06/08 00:44:39;;;;;;;3.67;3.38;;;20.20;91.40;19.80;99889.00;;;;338823;28;88314;-86
2021/06/08 00:44:51;;;;;;;4.28;3.72;;;20.20;91.50;19.90;99888.00;;;;342827;28;86889;-86
2021/06/08 00:45:05;;;;;;;4.00;3.50;;;20.20;91.50;19.90;99888.00;;;;338867;28;89634;-87
2021/06/08 00:45:17;;;;;;;4.55;3.38;;;20.20;91.50;20.00;99882.00;;;;341539;28;87097;-86
2021/06/08 00:45:28;;;;;;;5.20;3.58;;;20.20;91.50;20.10;99887.00;;;;341476;28;89478;-86
2021/06/08 00:45:40;;;;;;;4.40;3.25;;;20.10;91.50;20.10;99884.00;;;;339910;28;87587;-86
2021/06/08 00:45:53;;;;;;;4.40;3.40;;;20.10;91.50;19.90;99887.00;;;;341395;28;90740;-87
2021/06/08 00:46:05;;;;;;;4.35;3.42;;;20.10;91.50;19.90;99884.00;;;;338409;28;86223;-87
2021/06/08 00:46:18;;;;;;;4.88;3.80;;;20.10;91.50;20.00;99887.00;;;;340230;28;88220;-87
2021/06/08 00:46:30;;;;;;;4.22;3.72;;;20.10;91.80;20.10;99887.00;;;;338902;28;87031;-86
2021/06/08 00:46:44;;;;;;;3.75;3.45;;;20.10;91.50;20.00;99881.00;;;;339791;28;89648;-86
2021/06/08 00:46:57;;;;;;;3.70;3.28;;;20.10;91.60;20.00;99886.00;;;;338742;28;86957;-86
2021/06/08 00:47:09;;;;;;;3.70;3.28;;;20.10;91.60;20.00;99891.00;;;;338795;28;89627;-86
2021/06/08 00:47:21;;;;;;;4.88;3.40;;;20.10;91.50;20.00;99884.00;;;;334834;29;86913;-87
2021/06/08 00:47:33;;;;;;;5.03;3.40;;;20.10;91.60;20.00;99886.00;;;;340131;28;89218;-86
2021/06/08 00:47:44;;;;;;;5.63;3.65;;;20.10;91.60;19.90;99884.00;;;;336951;28;87283;-87
2021/06/08 00:47:57;;;;;;;5.03;3.60;;;20.10;91.60;20.00;99886.00;;;;340315;28;87846;-87
2021/06/08 00:48:09;;;;;;;5.05;3.80;;;20.10;91.50;20.00;99888.00;;;;338752;28;86287;-87
2021/06/08 00:48:21;;;;;;;4.10;3.60;;;20.10;91.60;20.10;99888.00;;;;337673;28;88702;-86
2021/06/08 00:48:33;;;;;;;4.28;3.85;;;20.10;91.60;20.00;99891.00;;;;339830;28;87769;-86
2021/06/08 00:48:45;;;;;;;4.20;3.80;;;20.10;91.60;19.90;99886.00;;;;340305;28;89556;-86
2021/06/08 00:48:57;;;;;;;4.25;3.85;;;20.10;91.60;19.90;99891.00;;;;337304;28;87769;-86
2021/06/08 00:49:09;;;;;;;4.38;3.50;;;20.10;91.60;20.00;99884.00;;;;341298;28;90871;-87
2021/06/08 00:49:21;;;;;;;4.82;3.60;;;20.10;91.60;20.00;99886.00;;;;340289;28;87431;-86
2021/06/08 00:49:33;;;;;;;4.63;3.38;;;20.10;91.60;19.90;99888.00;;;;341137;28;90803;-86
2021/06/08 00:49:45;;;;;;;3.92;3.30;;;20.10;91.60;20.00;99884.00;;;;338838;28;88003;-86
2021/06/08 00:49:57;;;;;;;4.20;3.60;;;20.10;91.70;19.90;99890.00;;;;338977;28;88571;-87
2021/06/08 00:50:10;;;;;;;4.35;3.63;;;20.10;91.60;19.90;99876.00;;;;337414;28;86175;-86
2021/06/08 00:50:22;;;;;;;4.10;3.63;;;20.10;91.60;19.90;99882.00;;;;339028;28;86906;-87
2021/06/08 00:50:34;;;;;;;4.22;3.80;;;20.10;91.70;19.80;99890.00;;;;338836;28;86082;-86
2021/06/08 00:50:46;;;;;;;9.18;4.05;;;20.10;91.70;19.70;99889.00;;;;338951;28;89504;-86
2021/06/08 00:50:58;;;;;;;9.10;3.97;;;20.00;91.70;19.70;99883.00;;;;340164;28;86842;-87
2021/06/08 00:51:10;;;;;;;9.07;4.10;;;20.00;91.70;19.80;99887.00;;;;340116;28;89420;-87
2021/06/08 00:51:22;;;;;;;5.38;3.80;;;20.00;91.70;19.70;99875.00;;;;341489;28;86667;-86
2021/06/08 00:51:34;;;;;;;5.70;3.50;;;20.00;91.70;19.80;99883.00;;;;339037;28;88632;-86
2021/06/08 00:51:46;;;;;;;5.07;3.63;;;20.00;91.70;19.80;99880.00;;;;338485;28;87077;-86
2021/06/08 00:51:58;;;;;;;4.45;3.90;;;20.00;91.80;19.80;99886.00;;;;341563;28;87747;-86
2021/06/08 00:52:10;;;;;;;4.45;3.75;;;20.00;91.80;19.70;99883.00;;;;337548;28;86201;-86
2021/06/08 00:52:22;;;;;;;4.20;3.70;;;20.00;91.80;19.80;99876.00;;;;341131;28;88572;-86
2021/06/08 00:52:34;;;;;;;4.03;3.63;;;20.00;91.80;19.70;99886.00;;;;338609;28;87240;-86
2021/06/08 00:52:45;;;;;;;4.18;3.78;;;20.00;91.80;19.80;99888.00;;;;340107;28;91883;-86
2021/06/08 00:52:57;;;;;;;4.32;3.92;;;20.00;91.80;19.80;99888.00;;;;337543;28;86863;-86
2021/06/08 00:53:09;;;;;;;4.47;4.03;;;19.90;91.80;19.80;99879.00;;;;338791;28;88926;-87
2021/06/08 00:53:21;;;;;;;4.53;3.92;;;20.00;91.80;19.80;99891.00;;;;337139;28;86979;-87
2021/06/08 00:53:33;;;;;;;4.57;3.70;;;20.00;91.90;19.80;99890.00;;;;340305;28;89195;-86
2021/06/08 00:53:45;;;;;;;3.83;3.42;;;20.00;91.90;19.70;99886.00;;;;339767;28;87147;-87
2021/06/08 00:53:59;;;;;;;3.72;3.38;;;19.90;91.90;19.60;99886.00;;;;341362;28;90934;-86
2021/06/08 00:54:11;;;;;;;4.95;3.75;;;19.90;91.80;19.50;99885.00;;;;341467;28;86785;-86
2021/06/08 00:54:23;;;;;;;5.20;3.88;;;19.90;91.90;19.60;99888.00;;;;341536;28;88805;-86
2021/06/08 00:54:35;;;;;;;3.92;3.53;;;19.90;91.90;19.60;99886.00;;;;341558;28;86921;-86
2021/06/08 00:54:47;;;;;;;3.58;3.25;;;19.90;92.00;19.70;99884.00;;;;338894;28;89628;-86